Time;durP1;ratioP1;P1;durP2;ratioP2;P2;SDS_P1;SDS_P2;PMS_P1;PMS_P2;Temp;Humidity;BMP_temperature;BMP_pressure;BME280_temperature;BME280_humidity;BME280_pressure;Samples;Min_cycle;Max_cycle;Signal;HPM_P1;HPM_P2
2023/01/15 00:02:27;;;;;;;4.47;0.60;;;;;;;3.98;100.00;99004.66;7398900;19;20403;-53
2023/01/15 00:04:56;;;;;;;2.50;0.80;;;;;;;3.97;100.00;99011.44;7397533;19;20434;-53
2023/01/15 00:07:26;;;;;;;1.70;0.50;;;;;;;3.95;100.00;99012.19;7397883;19;20412;-58
2023/01/15 00:09:55;;;;;;;3.10;0.60;;;;;;;3.91;100.00;99036.72;7391351;19;20446;-59
2023/01/15 00:12:25;;;;;;;3.20;0.90;;;;;;;3.94;100.00;99046.19;7395756;19;20402;-54
2023/01/15 00:14:56;;;;;;;1.50;0.70;;;;;;;3.91;100.00;99058.00;7393829;19;20447;-55
2023/01/15 00:17:29;;;;;;;3.97;0.80;;;;;;;3.88;100.00;99057.88;7398728;19;20444;-57
2023/01/15 00:19:58;;;;;;;4.07;0.63;;;;;;;3.89;100.00;99066.38;7393297;19;20442;-53
2023/01/15 00:22:27;;;;;;;6.50;0.73;;;;;;;3.87;100.00;99066.34;7397871;19;20412;-57
2023/01/15 00:27:44;;;;;;;13.07;1.23;;;;;;;3.85;100.00;99072.19;7397148;19;20404;-58
2023/01/15 00:30:16;;;;;;;2.57;0.97;;;;;;;3.85;100.00;99092.59;7393458;19;20961;-59
2023/01/15 00:32:48;;;;;;;3.77;0.50;;;;;;;3.86;100.00;99105.44;7395623;19;20407;-54
2023/01/15 00:35:19;;;;;;;5.40;1.00;;;;;;;3.85;100.00;99113.00;7393179;19;20439;-57
2023/01/15 00:37:48;;;;;;;3.30;0.60;;;;;;;3.84;100.00;99124.03;7397775;19;20416;-57
2023/01/15 00:40:20;;;;;;;6.03;0.70;;;;;;;3.84;100.00;99140.19;7393459;19;20431;-56
2023/01/15 00:42:49;;;;;;;1.93;0.87;;;;;;;3.85;100.00;99136.84;7396485;19;20407;-55
2023/01/15 00:45:23;;;;;;;15.13;1.03;;;;;;;3.87;100.00;99149.66;7392971;19;20439;-58
2023/01/15 00:47:55;;;;;;;4.83;0.60;;;;;;;3.85;100.00;99164.91;7396981;19;20479;-51
2023/01/15 00:50:24;;;;;;;3.40;0.80;;;;;;;3.89;100.00;99165.91;7393231;19;20443;-54
2023/01/15 00:52:54;;;;;;;2.50;0.57;;;;;;;3.94;100.00;99181.44;7395415;19;20454;-57
2023/01/15 00:55:24;;;;;;;7.43;1.00;;;;;;;3.90;100.00;99177.88;7392481;19;20423;-56
2023/01/15 00:57:54;;;;;;;9.13;0.80;;;;;;;3.90;100.00;99185.53;7396223;19;20756;-59
2023/01/15 01:00:23;;;;;;;5.70;0.63;;;;;;;3.94;100.00;99186.53;7393894;19;20928;-57
2023/01/15 01:02:55;;;;;;;4.30;1.60;;;;;;;3.92;100.00;99195.00;7397167;19;20419;-56
2023/01/15 01:05:25;;;;;;;5.63;0.70;;;;;;;3.89;100.00;99197.41;7393180;19;20451;-55
2023/01/15 01:07:54;;;;;;;4.53;0.70;;;;;;;3.92;100.00;99202.66;7396194;19;20941;-59
2023/01/15 01:10:24;;;;;;;6.40;1.17;;;;;;;3.93;100.00;99211.19;7393501;19;20970;-57
2023/01/15 01:12:54;;;;;;;3.80;0.80;;;;;;;3.91;100.00;99221.31;7395692;19;20523;-60
2023/01/15 01:15:24;;;;;;;4.67;0.70;;;;;;;3.95;100.00;99216.34;7391915;19;20465;-56
2023/01/15 01:17:56;;;;;;;5.27;0.67;;;;;;;4.00;100.00;99230.19;7397266;19;20400;-59
2023/01/15 01:20:26;;;;;;;2.70;0.90;;;;;;;3.97;100.00;99223.28;7393115;19;20465;-60
2023/01/15 01:22:55;;;;;;;1.73;0.80;;;;;;;3.97;100.00;99225.81;7395239;19;20426;-55
2023/01/15 01:25:25;;;;;;;3.60;0.60;;;;;;;4.00;100.00;99232.75;7392584;19;20458;-57
2023/01/15 01:27:54;;;;;;;6.50;0.73;;;;;;;3.99;100.00;99239.50;7396401;19;20395;-58
2023/01/15 01:30:24;;;;;;;3.93;0.50;;;;;;;3.98;100.00;99236.88;7392916;19;20905;-59
2023/01/15 01:32:53;;;;;;;3.20;0.47;;;;;;;4.00;100.00;99227.66;7394810;19;20423;-60
2023/01/15 01:35:25;;;;;;;2.47;0.47;;;;;;;4.02;100.00;99229.47;7391861;19;20443;-56
2023/01/15 01:37:55;;;;;;;5.13;0.70;;;;;;;4.04;100.00;99229.50;7395571;19;20411;-57
2023/01/15 01:40:24;;;;;;;10.00;0.70;;;;;;;4.01;100.00;99225.13;7392732;19;20454;-56
2023/01/15 01:42:55;;;;;;;3.20;1.00;;;;;;;4.04;100.00;99224.41;7395284;19;20403;-56
2023/01/15 01:45:27;;;;;;;4.70;0.80;;;;;;;4.05;100.00;99227.03;7391593;19;20858;-60
2023/01/15 01:47:59;;;;;;;3.00;0.60;;;;;;;4.07;100.00;99222.00;7395087;19;20407;-59
2023/01/15 01:50:33;;;;;;;3.93;1.03;;;;;;;4.09;100.00;99225.47;7391062;19;20462;-58
2023/01/15 01:53:05;;;;;;;5.77;0.80;;;;;;;4.12;100.00;99229.84;7394032;19;20403;-59
2023/01/15 01:55:36;;;;;;;6.70;1.07;;;;;;;4.13;100.00;99224.81;7391637;19;20439;-56
2023/01/15 01:58:11;;;;;;;3.90;0.97;;;;;;;4.11;100.00;99218.75;7394507;19;20403;-58
2023/01/15 02:00:43;;;;;;;6.53;1.30;;;;;;;4.14;100.00;99223.13;7392017;19;20430;-57
2023/01/15 02:03:13;;;;;;;2.67;0.90;;;;;;;4.16;100.00;99218.97;7394950;19;20399;-57
2023/01/15 02:05:49;;;;;;;2.13;0.90;;;;;;;4.17;100.00;99203.69;7389799;19;20439;-56
2023/01/15 02:08:18;;;;;;;3.13;0.70;;;;;;;4.20;100.00;99208.06;7395484;19;20403;-58
2023/01/15 02:10:51;;;;;;;3.27;1.33;;;;;;;4.22;100.00;99203.91;7392015;19;20442;-57
2023/01/15 02:13:24;;;;;;;2.00;0.70;;;;;;;4.26;100.00;99180.22;7393897;19;20408;-57
2023/01/15 02:16:00;;;;;;;7.20;0.83;;;;;;;4.26;100.00;99193.00;7394567;19;20447;-56
2023/01/15 02:18:32;;;;;;;4.53;1.87;;;;;;;4.24;100.00;99184.41;7393510;19;20360;-56
2023/01/15 02:21:09;;;;;;;8.00;1.40;;;;;;;4.25;100.00;99192.97;7394245;19;20422;-57
2023/01/15 02:24:03;;;;;;;3.80;0.80;;;;;;;4.24;100.00;99184.41;7392591;19;20782;-57
2023/01/15 02:26:56;;;;;;;2.10;0.70;;;;;;;4.26;100.00;99177.69;7396078;19;20411;-56
2023/01/15 02:29:31;;;;;;;2.43;0.93;;;;;;;4.25;100.00;99190.41;7391116;19;20419;-58
2023/01/15 02:32:01;;;;;;;8.53;1.23;;;;;;;4.26;100.00;99195.56;7393935;19;20442;-58
2023/01/15 02:34:33;;;;;;;4.37;1.07;;;;;;;4.27;100.00;99193.88;7387091;19;20949;-58
2023/01/15 02:37:05;;;;;;;18.40;1.57;;;;;;;4.24;100.00;99194.63;7394918;19;20425;-59
2023/01/15 02:39:36;;;;;;;4.60;0.60;;;;;;;4.26;100.00;99202.34;7391298;19;20788;-56
2023/01/15 02:42:10;;;;;;;3.00;1.07;;;;;;;4.24;100.00;99197.19;7393972;19;20775;-59
2023/01/15 02:44:43;;;;;;;6.10;1.03;;;;;;;4.26;100.00;99202.34;7388690;19;20447;-59
2023/01/15 02:47:13;;;;;;;3.00;1.27;;;;;;;4.22;100.00;99190.25;7394927;19;20949;-58
2023/01/15 02:49:43;;;;;;;9.47;0.90;;;;;;;4.21;100.00;99183.41;7389295;19;20454;-59
2023/01/15 02:52:16;;;;;;;9.60;1.30;;;;;;;4.23;100.00;99187.78;7393596;19;20412;-57
2023/01/15 02:54:49;;;;;;;4.60;0.67;;;;;;;4.22;100.00;99185.16;7389414;19;20465;-60
2023/01/15 02:57:29;;;;;;;3.60;0.80;;;;;;;4.21;100.00;99175.75;7393866;19;20919;-60
2023/01/15 03:00:00;;;;;;;2.13;0.50;;;;;;;4.23;100.00;99179.22;7390680;19;20450;-61
2023/01/15 03:02:33;;;;;;;3.23;0.70;;;;;;;4.25;100.00;99185.31;7393851;19;20404;-61
2023/01/15 03:05:07;;;;;;;2.23;0.70;;;;;;;4.24;100.00;99189.53;7388573;19;20500;-61
2023/01/15 03:07:39;;;;;;;12.43;1.10;;;;;;;4.22;100.00;99185.16;7394802;19;20403;-58
2023/01/15 03:10:09;;;;;;;7.33;1.17;;;;;;;4.22;100.00;99182.59;7388738;19;20439;-59
2023/01/15 03:18:13;;;;;;;4.47;1.17;;;;;;;4.21;100.00;99184.31;7392088;19;20450;-61
2023/01/15 03:20:45;;;;;;;4.63;1.60;;;;;;;4.18;100.00;99190.16;7390752;19;20439;-61
2023/01/15 03:23:15;;;;;;;9.13;1.70;;;;;;;4.20;100.00;99190.19;7388171;19;20426;-61
2023/01/15 03:25:48;;;;;;;9.93;1.23;;;;;;;4.17;100.00;99180.72;7388227;19;20462;-60
2023/01/15 03:28:25;;;;;;;2.40;0.63;;;;;;;4.21;100.00;99173.19;7393312;19;20412;-61
2023/01/15 03:30:54;;;;;;;10.70;1.23;;;;;;;4.23;100.00;99171.56;7389656;19;20461;-63
2023/01/15 03:33:25;;;;;;;4.43;1.10;;;;;;;4.19;100.00;99191.88;7392860;19;20419;-61
2023/01/15 03:35:57;;;;;;;3.10;0.80;;;;;;;4.24;100.00;99183.53;7389972;19;20813;-62
2023/01/15 03:38:29;;;;;;;6.90;1.50;;;;;;;4.23;100.00;99174.13;7391247;19;20386;-62
2023/01/15 03:41:04;;;;;;;7.27;1.37;;;;;;;4.20;100.00;99182.53;7392653;19;20425;-62
2023/01/15 03:43:43;;;;;;;4.37;1.00;;;;;;;4.20;100.00;99185.09;7390711;19;20394;-58
2023/01/15 03:46:30;;;;;;;5.40;1.00;;;;;;;4.20;100.00;99177.41;7398945;19;20771;-63
2023/01/15 03:49:06;;;;;;;6.73;1.20;;;;;;;4.22;100.00;99174.94;7395476;19;20411;-63
2023/01/15 03:51:40;;;;;;;7.40;0.90;;;;;;;4.20;100.00;99177.41;7400659;19;20403;-60
2023/01/15 03:54:13;;;;;;;4.90;1.13;;;;;;;4.18;100.00;99184.16;7393625;19;20441;-60
2023/01/15 03:56:49;;;;;;;1.87;1.27;;;;;;;4.18;100.00;99173.94;7399488;19;20406;-62
2023/01/15 03:59:25;;;;;;;4.27;1.20;;;;;;;4.17;100.00;99167.94;7395784;19;20442;-62
2023/01/15 04:01:55;;;;;;;6.37;2.30;;;;;;;4.17;100.00;99157.75;7399143;19;20756;-61
2023/01/15 04:04:26;;;;;;;7.03;0.90;;;;;;;4.13;100.00;99155.00;7393954;19;20510;-62
2023/01/15 04:06:56;;;;;;;4.67;1.17;;;;;;;4.12;100.00;99159.25;7399674;19;20408;-60
2023/01/15 04:09:26;;;;;;;6.40;1.00;;;;;;;4.11;100.00;99154.94;7395104;19;20411;-62
2023/01/15 04:11:55;;;;;;;4.27;0.83;;;;;;;4.13;100.00;99168.66;7398412;19;20942;-60
2023/01/15 04:14:29;;;;;;;6.70;1.07;;;;;;;4.08;100.00;99152.25;7393545;19;20446;-62
2023/01/15 04:16:58;;;;;;;4.43;1.57;;;;;;;4.13;100.00;99155.88;7399054;19;20988;-63
2023/01/15 04:19:28;;;;;;;8.93;1.20;;;;;;;4.16;100.00;99160.25;7391535;19;20447;-63
2023/01/15 04:21:57;;;;;;;8.20;1.27;;;;;;;4.14;100.00;99144.88;7398484;19;20931;-59
2023/01/15 04:24:27;;;;;;;5.33;1.10;;;;;;;4.12;100.00;99132.84;7393449;19;20762;-60
2023/01/15 04:26:56;;;;;;;4.00;0.97;;;;;;;4.14;100.00;99139.75;7398538;19;20419;-62
2023/01/15 04:29:28;;;;;;;8.70;1.23;;;;;;;4.14;100.00;99126.09;7394863;19;20836;-63
2023/01/15 04:31:58;;;;;;;9.80;1.20;;;;;;;4.14;100.00;99131.22;7398264;19;20406;-60
2023/01/15 04:34:29;;;;;;;2.83;0.70;;;;;;;4.11;100.00;99133.66;7393853;19;20453;-61
2023/01/15 04:36:59;;;;;;;5.20;1.00;;;;;;;4.12;100.00;99123.50;7398555;19;20399;-61
2023/01/15 04:39:28;;;;;;;8.50;1.10;;;;;;;4.14;100.00;99124.44;7394795;19;20416;-61
2023/01/15 04:44:42;;;;;;;4.80;0.70;;;;;;;4.11;100.00;99121.75;7392411;19;20435;-64
2023/01/15 04:47:12;;;;;;;7.30;1.37;;;;;;;4.06;100.00;99118.16;7398632;19;20754;-61
2023/01/15 04:49:41;;;;;;;4.47;1.00;;;;;;;4.10;100.00;99124.25;7392707;19;21112;-62
2023/01/15 04:52:10;;;;;;;4.40;1.23;;;;;;;4.06;100.00;99125.81;7397716;19;20801;-62
2023/01/15 04:54:40;;;;;;;5.37;1.60;;;;;;;4.04;100.00;99120.63;7391174;19;21035;-62
2023/01/15 04:57:09;;;;;;;8.47;0.90;;;;;;;4.05;100.00;99116.38;7396640;19;20403;-63
2023/01/15 04:59:41;;;;;;;4.10;0.83;;;;;;;4.08;100.00;99119.06;7394047;19;20446;-62
2023/01/15 05:02:11;;;;;;;5.17;1.23;;;;;;;4.02;100.00;99119.72;7397174;19;20403;-63
2023/01/15 05:04:43;;;;;;;23.83;1.73;;;;;;;4.04;100.00;99107.88;7391385;19;20446;-62
2023/01/15 05:07:12;;;;;;;4.37;2.00;;;;;;;4.09;100.00;99110.59;7397432;19;20413;-60
2023/01/15 05:09:42;;;;;;;23.53;1.77;;;;;;;4.07;100.00;99114.78;7392496;19;20962;-62
2023/01/15 05:12:14;;;;;;;4.00;0.67;;;;;;;4.10;100.00;99126.81;7397002;19;20407;-62
2023/01/15 05:14:46;;;;;;;3.90;0.70;;;;;;;4.06;100.00;99125.81;7390956;19;20450;-62
2023/01/15 05:17:16;;;;;;;5.97;1.53;;;;;;;4.09;100.00;99113.16;7397395;19;20404;-62
2023/01/15 05:19:45;;;;;;;5.33;1.17;;;;;;;4.08;100.00;99119.06;7391498;19;20462;-62
2023/01/15 05:22:15;;;;;;;3.03;0.80;;;;;;;4.16;100.00;99110.03;7396555;19;20400;-60
2023/01/15 05:24:44;;;;;;;12.70;3.60;;;;;;;4.15;100.00;99108.31;7390458;19;20470;-62
2023/01/15 05:27:13;;;;;;;8.70;1.70;;;;;;;4.11;100.00;99101.31;7396881;19;20399;-61
2023/01/15 05:29:43;;;;;;;1.60;0.60;;;;;;;4.09;100.00;99109.75;7391736;19;20436;-62
2023/01/15 05:32:15;;;;;;;9.50;1.20;;;;;;;4.17;100.00;99093.06;7396258;19;20403;-61
2023/01/15 05:34:44;;;;;;;4.60;1.13;;;;;;;4.15;100.00;99130.44;7390624;19;20976;-61
2023/01/15 05:37:14;;;;;;;7.53;1.40;;;;;;;4.16;100.00;99115.16;7397346;19;20415;-61
2023/01/15 05:39:43;;;;;;;17.87;1.27;;;;;;;4.16;100.00;99120.25;7391709;19;20435;-62
2023/01/15 05:42:13;;;;;;;7.97;1.50;;;;;;;4.18;100.00;99113.56;7395770;19;20939;-60
2023/01/15 05:44:43;;;;;;;4.53;0.90;;;;;;;4.16;100.00;99114.31;7389813;19;20431;-61
2023/01/15 05:47:15;;;;;;;3.70;1.10;;;;;;;4.17;100.00;99113.47;7396128;19;20801;-61
2023/01/15 05:49:44;;;;;;;6.00;1.80;;;;;;;4.12;100.00;99113.31;7390247;19;20419;-62
2023/01/15 05:52:14;;;;;;;6.90;0.83;;;;;;;4.13;100.00;99114.16;7395551;19;20395;-63
2023/01/15 05:54:43;;;;;;;1.90;1.23;;;;;;;4.14;100.00;99119.34;7389345;19;20455;-62
2023/01/15 05:57:14;;;;;;;10.00;1.67;;;;;;;4.15;100.00;99105.75;7396271;19;20408;-63
2023/01/15 05:59:43;;;;;;;7.77;0.90;;;;;;;4.13;100.00;99109.94;7391477;19;20435;-64
2023/01/15 06:02:15;;;;;;;8.30;0.90;;;;;;;4.23;100.00;99111.19;7395414;19;20396;-61
2023/01/15 06:04:45;;;;;;;6.80;1.90;;;;;;;4.31;100.00;99114.06;7390056;19;20458;-62
2023/01/15 06:07:16;;;;;;;3.40;1.43;;;;;;;4.34;100.00;99114.16;7395600;19;20416;-62
2023/01/15 06:09:45;;;;;;;8.70;1.63;;;;;;;4.39;100.00;99120.34;7388117;19;20827;-63
2023/01/15 06:12:15;;;;;;;17.87;1.40;;;;;;;4.44;100.00;99130.72;7395178;19;20418;-61
2023/01/15 06:14:44;;;;;;;5.43;1.77;;;;;;;4.50;100.00;99125.00;7388819;19;20462;-62
2023/01/15 06:17:16;;;;;;;16.13;3.60;;;;;;;4.58;100.00;99133.84;7395340;19;20872;-63
2023/01/15 06:19:45;;;;;;;6.13;1.20;;;;;;;4.57;100.00;99132.13;7390772;19;20431;-62
2023/01/15 06:22:17;;;;;;;8.83;0.80;;;;;;;4.63;100.00;99137.47;7394712;19;20414;-62
2023/01/15 06:24:46;;;;;;;4.50;1.20;;;;;;;4.64;100.00;99143.44;7388120;19;20455;-63
2023/01/15 06:27:15;;;;;;;7.10;1.63;;;;;;;4.64;100.00;99144.31;7395656;19;20864;-62
2023/01/15 06:29:45;;;;;;;7.17;1.30;;;;;;;4.61;100.00;99151.84;7390055;19;20435;-62
2023/01/15 06:32:17;;;;;;;4.37;1.17;;;;;;;4.67;100.00;99148.66;7394480;19;20390;-62
2023/01/15 06:34:47;;;;;;;7.40;1.17;;;;;;;4.69;100.00;99153.03;7386780;19;20451;-63
2023/01/15 06:37:16;;;;;;;8.00;2.07;;;;;;;4.76;100.00;99143.06;7394790;19;20434;-63
2023/01/15 06:39:46;;;;;;;8.73;1.20;;;;;;;4.75;100.00;99171.94;7389886;19;20431;-63
2023/01/15 06:47:44;;;;;;;5.57;1.50;;;;;;;4.85;100.00;99182.63;7393713;19;20391;-61
2023/01/15 06:50:14;;;;;;;8.80;3.20;;;;;;;4.90;100.00;99164.91;7389207;19;20446;-62
2023/01/15 06:52:44;;;;;;;6.23;1.63;;;;;;;4.82;100.00;99173.97;7392871;19;20428;-64
2023/01/15 06:55:13;;;;;;;9.30;1.93;;;;;;;4.85;100.00;99171.50;7387723;19;20428;-63
2023/01/15 06:57:43;;;;;;;6.40;1.30;;;;;;;4.91;100.00;99161.53;7393901;19;21148;-62
2023/01/15 07:00:14;;;;;;;4.63;1.30;;;;;;;4.87;100.00;99169.88;7389612;19;20432;-63
2023/01/15 07:02:46;;;;;;;8.20;1.27;;;;;;;4.88;100.00;99181.00;7392916;19;20408;-63
2023/01/15 07:05:16;;;;;;;4.70;0.93;;;;;;;4.89;100.00;99170.84;7387298;19;20454;-65
2023/01/15 07:07:45;;;;;;;17.30;2.03;;;;;;;4.96;100.00;99167.69;7392854;19;20403;-62
2023/01/15 07:10:14;;;;;;;1.70;0.67;;;;;;;4.89;100.00;99165.72;7389180;19;20474;-61
2023/01/15 07:12:44;;;;;;;1.67;0.77;;;;;;;4.90;100.00;99177.69;7392672;19;20789;-64
2023/01/15 07:15:13;;;;;;;12.33;0.97;;;;;;;4.90;100.00;99164.91;7387772;19;20465;-64
2023/01/15 07:17:45;;;;;;;5.17;1.30;;;;;;;4.88;100.00;99171.66;7392815;19;20438;-61
2023/01/15 07:20:15;;;;;;;6.10;1.17;;;;;;;4.90;100.00;99181.91;7392015;19;20427;-61
2023/01/15 07:22:44;;;;;;;3.60;1.73;;;;;;;4.85;100.00;99174.97;7399849;19;20399;-63
2023/01/15 07:25:14;;;;;;;7.10;1.10;;;;;;;4.83;100.00;99165.47;7394069;19;20447;-63
2023/01/15 07:27:43;;;;;;;6.07;1.37;;;;;;;4.85;100.00;99163.84;7400812;19;20934;-62
2023/01/15 07:30:14;;;;;;;6.30;1.60;;;;;;;4.81;100.00;99167.09;7394438;19;20997;-63
2023/01/15 07:32:46;;;;;;;11.30;2.20;;;;;;;4.80;100.00;99173.00;7399093;19;20407;-64
2023/01/15 07:35:15;;;;;;;5.97;1.47;;;;;;;4.83;100.00;99173.16;7393923;19;20465;-62
2023/01/15 07:37:45;;;;;;;14.53;2.63;;;;;;;4.80;100.00;99171.34;7397384;19;20961;-61
2023/01/15 07:40:14;;;;;;;5.23;1.40;;;;;;;4.82;100.00;99164.59;7396207;19;20808;-61
2023/01/15 07:50:55;;;;;;;7.57;1.60;;;;;;;4.79;100.00;99190.06;7395985;19;20514;-62
2023/01/15 07:53:24;;;;;;;2.80;1.10;;;;;;;4.82;100.00;99194.41;7396808;19;20434;-61
2023/01/15 07:55:53;;;;;;;8.70;1.20;;;;;;;4.81;100.00;99177.31;7395981;19;20447;-62
2023/01/15 07:58:23;;;;;;;2.90;0.90;;;;;;;4.78;100.00;99180.66;7396338;19;20395;-64
2023/01/15 08:00:52;;;;;;;5.90;1.70;;;;;;;4.79;100.00;99173.84;7399245;19;20851;-63
2023/01/15 08:03:24;;;;;;;5.60;1.80;;;;;;;4.75;100.00;99162.63;7399235;19;20412;-62
2023/01/15 08:05:54;;;;;;;10.93;1.77;;;;;;;4.71;100.00;99170.97;7395790;19;20838;-61
2023/01/15 08:08:25;;;;;;;6.73;1.40;;;;;;;4.71;100.00;99176.97;7390057;19;20437;-63
2023/01/15 08:16:18;;;;;;;11.53;1.53;;;;;;;4.70;100.00;99176.88;7397733;19;20399;-62
2023/01/15 08:18:50;;;;;;;4.80;1.37;;;;;;;4.73;100.00;99154.03;7395656;19;20431;-63
2023/01/15 08:21:20;;;;;;;3.53;1.20;;;;;;;4.69;100.00;99170.94;7398962;19;20407;-62
2023/01/15 08:23:49;;;;;;;4.90;1.00;;;;;;;4.67;100.00;99167.41;7393425;19;20418;-61
2023/01/15 08:26:19;;;;;;;10.17;1.70;;;;;;;4.69;100.00;99163.25;7399092;19;20407;-63
2023/01/15 08:28:48;;;;;;;7.00;1.17;;;;;;;4.67;100.00;99169.97;7394830;19;20408;-63
2023/01/15 08:31:18;;;;;;;6.83;1.67;;;;;;;4.68;100.00;99171.72;7396704;19;20419;-62
2023/01/15 08:33:47;;;;;;;13.03;1.43;;;;;;;4.59;100.00;99181.56;7393372;19;20403;-62
2023/01/15 08:36:20;;;;;;;9.37;2.50;;;;;;;4.61;100.00;99179.94;7397947;19;20395;-64
2023/01/15 08:38:50;;;;;;;3.20;0.93;;;;;;;4.59;100.00;99173.91;7394699;19;20419;-64
2023/01/15 08:41:20;;;;;;;6.17;1.30;;;;;;;4.58;100.00;99174.72;7398331;19;20410;-63
2023/01/15 08:43:49;;;;;;;4.73;1.10;;;;;;;4.56;100.00;99171.25;7393577;19;20968;-64
2023/01/15 08:46:19;;;;;;;6.53;1.57;;;;;;;4.55;100.00;99172.03;7397776;19;20403;-63
2023/01/15 08:48:48;;;;;;;4.07;0.80;;;;;;;4.50;100.00;99165.88;7393710;19;20430;-63
2023/01/15 08:51:20;;;;;;;4.90;0.87;;;;;;;4.48;100.00;99172.59;7398174;19;20423;-63
2023/01/15 08:53:50;;;;;;;9.27;1.03;;;;;;;4.49;100.00;99161.56;7392248;19;20419;-63
2023/01/15 08:56:21;;;;;;;3.10;1.20;;;;;;;4.46;100.00;99152.97;7397631;19;20430;-61
2023/01/15 08:58:50;;;;;;;5.93;1.33;;;;;;;4.41;100.00;99146.81;7394071;19;20407;-63
2023/01/15 09:01:20;;;;;;;5.93;1.40;;;;;;;4.39;100.00;99142.44;7397770;19;20423;-64
2023/01/15 09:03:49;;;;;;;5.70;1.27;;;;;;;4.39;100.00;99143.31;7392783;19;20751;-63
2023/01/15 09:06:21;;;;;;;4.23;1.37;;;;;;;4.39;100.00;99145.88;7397322;19;21059;-63
2023/01/15 09:08:51;;;;;;;6.13;1.50;;;;;;;4.36;100.00;99135.53;7393943;19;20446;-62
2023/01/15 09:11:20;;;;;;;10.07;2.70;;;;;;;4.39;100.00;99128.00;7397255;19;20816;-63
2023/01/15 09:13:50;;;;;;;7.70;1.40;;;;;;;4.38;100.00;99123.72;7393410;19;20416;-62
2023/01/15 09:16:20;;;;;;;6.60;1.30;;;;;;;4.43;100.00;99123.88;7396498;19;20408;-63
2023/01/15 09:18:49;;;;;;;4.30;1.17;;;;;;;4.46;100.00;99130.00;7392898;19;20495;-63
2023/01/15 09:21:21;;;;;;;10.83;1.50;;;;;;;4.44;100.00;99133.28;7396647;19;20399;-63
2023/01/15 09:23:53;;;;;;;14.93;1.70;;;;;;;4.39;100.00;99134.78;7391591;19;20432;-63
2023/01/15 09:26:28;;;;;;;12.00;1.40;;;;;;;4.38;100.00;99144.13;7397018;19;20404;-63
2023/01/15 09:28:58;;;;;;;3.40;1.07;;;;;;;4.44;100.00;99136.72;7392638;19;20405;-63
2023/01/15 09:31:28;;;;;;;4.33;0.90;;;;;;;4.48;100.00;99139.38;7396539;19;20390;-63
2023/01/15 09:33:58;;;;;;;5.07;1.30;;;;;;;4.53;100.00;99133.66;7392001;19;20994;-63
2023/01/15 09:36:32;;;;;;;14.00;2.83;;;;;;;4.59;100.00;99145.81;7396889;19;20471;-63
2023/01/15 09:39:02;;;;;;;1.80;0.90;;;;;;;4.60;100.00;99137.31;7372466;19;20411;-64
2023/01/15 09:44:32;;;;;;;6.53;1.23;;;;;;;4.68;100.00;99156.38;7390273;19;20435;-62
2023/01/15 09:47:10;;;;;;;7.60;1.70;;;;;;;4.82;100.00;99153.53;7395841;19;20939;-62
2023/01/15 09:49:50;;;;;;;17.73;2.47;;;;;;;4.80;100.00;99173.00;7392450;19;20446;-63
2023/01/15 09:52:27;;;;;;;2.80;0.80;;;;;;;4.96;100.00;99162.59;7392055;19;20426;-62
2023/01/15 09:55:04;;;;;;;4.30;0.70;;;;;;;4.92;100.00;99170.09;7388142;19;20506;-63
2023/01/15 09:57:34;;;;;;;2.47;1.00;;;;;;;4.96;100.00;99183.03;7393904;19;20403;-63
2023/01/15 10:00:05;;;;;;;8.90;1.37;;;;;;;4.93;100.00;99176.94;7390109;19;20462;-63
2023/01/15 10:02:39;;;;;;;7.83;0.80;;;;;;;4.91;100.00;99174.31;7394104;19;20412;-63
2023/01/15 10:05:13;;;;;;;4.83;0.93;;;;;;;4.99;100.00;99172.91;7388613;19;20470;-63
2023/01/15 10:07:53;;;;;;;9.07;1.10;;;;;;;5.04;100.00;99175.69;7394135;19;20411;-63
2023/01/15 10:10:25;;;;;;;2.63;0.70;;;;;;;4.96;100.00;99177.94;7390231;19;20431;-62
2023/01/15 10:12:59;;;;;;;8.00;1.20;;;;;;;4.99;100.00;99159.28;7393170;19;20442;-62
2023/01/15 10:15:36;;;;;;;4.73;0.70;;;;;;;4.94;100.00;99171.91;7388217;19;20447;-63
2023/01/15 10:18:07;;;;;;;7.07;1.07;;;;;;;4.97;100.00;99174.56;7392352;19;20403;-63
2023/01/15 10:20:50;;;;;;;2.53;0.90;;;;;;;4.94;100.00;99189.78;7388046;19;20440;-64
2023/01/15 10:23:36;;;;;;;1.90;0.50;;;;;;;4.98;100.00;99185.66;7389554;19;20414;-60
2023/01/15 10:26:17;;;;;;;7.70;0.90;;;;;;;5.03;100.00;99189.25;7392522;19;20443;-63
2023/01/15 10:28:56;;;;;;;4.90;1.23;;;;;;;4.94;100.00;99194.00;7391691;19;20415;-63
2023/01/15 10:31:32;;;;;;;2.20;0.80;;;;;;;4.91;100.00;99204.13;7389386;19;21065;-63
2023/01/15 10:34:16;;;;;;;3.63;1.10;;;;;;;4.91;100.00;99212.66;7388854;19;20462;-64
2023/01/15 10:36:49;;;;;;;2.60;0.90;;;;;;;4.92;100.00;99193.09;7394710;19;20410;-63
2023/01/15 10:39:27;;;;;;;2.77;0.73;;;;;;;4.90;100.00;99189.59;7389015;19;20443;-63
2023/01/15 10:42:03;;;;;;;7.80;1.20;;;;;;;4.85;100.00;99194.50;7393809;19;20922;-64
2023/01/15 10:44:41;;;;;;;3.30;1.03;;;;;;;4.88;100.00;99174.22;7387113;19;20462;-62
2023/01/15 10:47:15;;;;;;;2.47;0.73;;;;;;;4.84;100.00;99180.88;7393884;19;20422;-63
2023/01/15 10:49:47;;;;;;;2.60;0.73;;;;;;;4.83;100.00;99175.72;7389040;19;20482;-62
2023/01/15 10:52:25;;;;;;;5.17;1.30;;;;;;;5.03;100.00;99158.56;7393381;19;20415;-63
2023/01/15 10:55:05;;;;;;;1.90;0.90;;;;;;;4.96;100.00;99172.81;7390188;19;20489;-63
2023/01/15 10:57:45;;;;;;;8.93;0.80;;;;;;;4.89;100.00;99165.72;7401458;19;20939;-62
2023/01/15 11:00:15;;;;;;;3.17;0.60;;;;;;;4.86;100.00;99160.47;7398254;19;21080;-62
2023/01/15 11:02:47;;;;;;;8.83;1.23;;;;;;;4.90;100.00;99139.34;7401823;19;20419;-63
2023/01/15 11:05:18;;;;;;;6.60;1.10;;;;;;;4.83;100.00;99156.13;7395168;19;20454;-63
2023/01/15 11:07:50;;;;;;;3.40;0.53;;;;;;;4.81;100.00;99170.53;7400929;19;20418;-63
2023/01/15 11:10:44;;;;;;;4.63;0.70;;;;;;;4.81;100.00;99151.75;7397456;19;20431;-64
2023/01/15 11:21:29;;;;;;;7.00;1.10;;;;;;;4.84;100.00;99157.00;7401323;19;20437;-62
2023/01/15 11:24:00;;;;;;;6.50;1.17;;;;;;;4.86;100.00;99152.81;7396933;19;20422;-63
2023/01/15 11:26:33;;;;;;;6.03;1.47;;;;;;;4.82;100.00;99162.03;7396796;19;20434;-62
2023/01/15 11:29:14;;;;;;;4.27;0.93;;;;;;;4.84;100.00;99146.78;7394472;19;20423;-64
2023/01/15 11:31:44;;;;;;;13.10;1.60;;;;;;;4.90;100.00;99141.03;7399177;19;20415;-63
2023/01/15 11:34:21;;;;;;;5.70;1.00;;;;;;;5.00;100.00;99109.91;7396037;19;21015;-63
2023/01/15 11:36:50;;;;;;;10.80;1.73;;;;;;;4.90;100.00;99124.00;7399859;19;20421;-64
2023/01/15 11:39:29;;;;;;;1.70;0.60;;;;;;;4.87;100.00;99126.44;7395115;19;20446;-63
2023/01/15 11:53:02;;;;;;;4.30;1.00;;;;;;;4.63;100.00;99128.91;7399807;19;20711;-64
2023/01/15 11:55:31;;;;;;;6.03;1.13;;;;;;;4.64;100.00;99148.53;7392738;19;20467;-64
2023/01/15 11:58:03;;;;;;;3.60;0.60;;;;;;;4.60;100.00;99162.88;7398462;19;20419;-64
2023/01/15 12:00:37;;;;;;;5.27;1.13;;;;;;;4.65;100.00;99140.94;7395900;19;20439;-64
2023/01/15 12:03:15;;;;;;;1.60;0.50;;;;;;;4.17;100.00;99154.34;7398752;19;20470;-64
2023/01/15 12:05:48;;;;;;;5.23;0.70;;;;;;;3.87;100.00;99167.53;7392910;19;20477;-63
2023/01/15 12:08:24;;;;;;;2.10;0.40;;;;;;;3.83;100.00;99146.09;7398432;19;20439;-64
2023/01/15 12:11:12;;;;;;;2.53;0.60;;;;;;;3.67;100.00;99133.50;7397581;19;20450;-65
2023/01/15 12:14:03;;;;;;;9.30;1.00;;;;;;;3.51;100.00;99104.78;7392704;19;20429;-65
2023/01/15 12:16:39;;;;;;;1.70;0.60;;;;;;;3.62;100.00;99102.69;7398480;19;20756;-64
2023/01/15 12:19:15;;;;;;;2.33;0.60;;;;;;;3.62;100.00;99100.13;7392985;19;20406;-64
2023/01/15 12:22:15;;;;;;;4.70;0.60;;;;;;;3.80;100.00;99088.97;7392753;19;20953;-63
2023/01/15 12:25:09;;;;;;;1.50;0.40;;;;;;;3.84;100.00;99080.66;7393994;19;20445;-64
2023/01/15 12:28:00;;;;;;;2.67;0.50;;;;;;;4.03;100.00;99083.16;7393906;19;20430;-63
2023/01/15 12:30:38;;;;;;;1.60;0.40;;;;;;;4.00;100.00;99083.03;7394583;19;20438;-64
2023/01/15 12:33:16;;;;;;;3.10;0.60;;;;;;;4.21;100.00;99091.50;7397340;19;20423;-64
2023/01/15 12:35:50;;;;;;;3.00;0.70;;;;;;;4.28;100.00;99083.28;7392779;19;20479;-65
2023/01/15 12:38:22;;;;;;;2.03;0.60;;;;;;;4.24;100.00;99072.06;7396998;19;20419;-65
2023/01/15 12:40:55;;;;;;;1.73;0.50;;;;;;;4.14;100.00;99086.16;7397020;19;20443;-65
2023/01/15 12:46:14;;;;;;;1.83;0.63;;;;;;;4.21;100.00;99068.53;7396956;19;20439;-65
2023/01/15 12:48:50;;;;;;;2.43;0.53;;;;;;;4.10;100.00;99079.16;7393373;19;20431;-64
2023/01/15 12:51:25;;;;;;;6.97;0.80;;;;;;;3.97;100.00;99062.50;7396648;19;20444;-64